Tuesday, January 16, 2018, 6:49 AM EST
Back to Local

KTAN, Taunton Municipal Airport

Location: East Taunton, MA, United States Lat: 41.883
Local Time: 6:49 AM EST (11:49 GMT) Lon: -71.017
Time Zone: US/Eastern Elev: 42 ft

Show me the last for .
Show Decoded

2018-01-16 05:52 METAR KTAN 161052Z AUTO 30003KT 10SM OVC026 M05/M09 A3051 RMK AO2 SLP333
                 T10501094 $ =
2018-01-16 04:52 METAR KTAN 160952Z AUTO 34004KT 10SM OVC028 M05/M09 A3051 RMK AO2 SLP331
                 T10501094 $ =
2018-01-16 03:52 METAR KTAN 160852Z AUTO 35006KT 10SM FEW011 OVC026 M05/M09 A3050 RMK AO2 SLP327
                 T10501094 53002 $ =
2018-01-16 03:19 METAR KTAN 160819Z AUTO VRB03KT 10SM SCT011 OVC022 M05/M09 A3050 RMK AO2
                 T10501094 $ =
2018-01-16 02:52 METAR KTAN 160752Z AUTO 34005KT 10SM BKN011 OVC021 M05/M09 A3050 RMK AO2 SLP327
                 T10501094 $ =
2018-01-16 01:52 METAR KTAN 160652Z AUTO VRB05KT 10SM OVC011 M06/M11 A3049 RMK AO2 SLP325
                 T10561111 $ =
2018-01-16 00:52 METAR KTAN 160552Z AUTO 34006KT 10SM OVC014 M06/M12 A3049 RMK AO2 SLP325
                 T10561122 11056 21067 56008 $ =
2018-01-16 00:49 METAR KTAN 160549Z AUTO 34006KT 10SM OVC014 M06/M12 A3049 RMK AO2 $ =
2018-01-15 23:52 METAR KTAN 160452Z AUTO 34005KT 10SM OVC015 M06/M12 A3051 RMK AO2 SLP330
                 T10561117 410561089 $ =
2018-01-15 22:52 METAR KTAN 160352Z AUTO 35005KT 10SM OVC016 M06/M13 A3051 RMK AO2 SLP333
                 T10611133 $ =
2018-01-15 21:52 METAR KTAN 160252Z AUTO 35005KT 10SM OVC017 M06/M14 A3054 RMK AO2 SLP343
                 T10611139 53000 $ =
2018-01-15 20:52 METAR KTAN 160152Z AUTO 35007KT 10SM OVC018 M06/M13 A3053 RMK AO2 SLP337
                 T10611128 $ =
2018-01-15 19:52 METAR KTAN 160052Z AUTO 33008KT 10SM OVC017 M06/M12 A3056 RMK AO2 SLP348
                 T10611122 $ =
2018-01-15 18:52 METAR KTAN 152352Z AUTO 34008KT 10SM OVC016 M07/M12 A3054 RMK AO2 SLP343
                 T10671122 11067 21078 $ =
2018-01-15 17:52 METAR KTAN 152252Z AUTO 36006G17KT 10SM OVC016 M07/M12 A3054 RMK AO2 SLP341
                 T10671122 $ =
2018-01-15 17:37 METAR KTAN 152237Z AUTO 35009G15KT 10SM OVC016 M07/M12 A3055 RMK AO2 T10721122 $
                 =
2018-01-15 16:52 METAR KTAN 152152Z AUTO 36008G17KT 10SM OVC015 M07/M12 A3056 RMK AO2 SLP348
                 T10721117 =
2018-01-15 16:48 METAR KTAN 152148Z AUTO 35008G17KT 320V040 10SM OVC015 M07/M12 A3056 RMK AO2 =
2018-01-15 15:52 METAR KTAN 152052Z AUTO 35008KT 6SM HZ OVC013 M08/M11 A3057 RMK AO2 SLP353
                 T10781106 56006 =
2018-01-15 14:52 METAR KTAN 151952Z AUTO 35009KT 4SM HZ OVC012 M08/M11 A3058 RMK AO2 SLP355
                 T10781106 =
2018-01-15 13:52 METAR KTAN 151852Z AUTO 35008G14KT 5SM HZ OVC011 M08/M11 A3056 RMK AO2 SLP350
                 T10781106 =
2018-01-15 12:52 METAR KTAN 151752Z AUTO 36009G15KT 4SM BR OVC011 M08/M10 A3059 RMK AO2 SLP359
                 60000 T10781100 11072 21078 58035 =
2018-01-15 11:52 METAR KTAN 151652Z AUTO 35006KT 5SM HZ OVC012 M08/M11 A3062 RMK AO2 SLP370
                 T10781106 =
2018-01-15 10:52 METAR KTAN 151552Z AUTO 35009KT 330V030 8SM OVC012 M08/M11 A3067 RMK AO2 SLP386
                 T10781111 =
2018-01-15 09:52 METAR KTAN 151452Z AUTO 36007G17KT 10SM OVC013 M08/M11 A3069 RMK AO2 SLP393
                 60000 T10781106 51002 =
2018-01-15 08:52 METAR KTAN 151352Z AUTO 35008G14KT 6SM HZ BKN013 OVC022 M08/M11 A3069 RMK AO2
                 SNE52 SLP393 P0000 T10781106 =
2018-01-15 07:52 METAR KTAN 151252Z AUTO 36005G17KT 6SM -SN BKN014 OVC024 M08/M11 A3070 RMK AO2
                 SNB43 SLP395 P0000 T10781106 =
2018-01-15 06:52 METAR KTAN 151152Z AUTO 36008G14KT 320V030 9SM BKN013 OVC025 M07/M11 A3069 RMK
                 AO2 SNE42 SLP391 P0000 60000 T10721106 11067 21089 53007 =

Support USWX by starting your Amazon purchase here.